CheckWX is a tool to help pilots better visualize weather data.  It is not intended as a substitute for an official pre-flight weather briefing.

12:24:37 UTC

CYWK TAF
Wabush Airport
Wabush, Canada
TAF CYWK 220745Z 2208/2220 22015KT P6SM OVC030 TEMPO 2208/2218 3SM -SN -RA BR OVC015 FM221800 27008KT P6SM BKN030 TEMPO 2218/2220 4SM -SN -RA BR OVC015 RMK FCST BASED ON AUTO OBS. NXT FCST BY 221400Z

Mar-22@
08:00 UTC

Mar-22 @ 08:00 UTC

Mar-22@
18:00 UTC

Mar-22 @ 18:00 UTC

TAF CYWK 220745Z 2208/2220 22015KT P6SM OVC030
Wind
  • 220° at 15 KTS
Cloud Levels
  • Overcast at 3,000' AGL

Mar-22@
08:00 UTC

Mar-22 @ 08:00 UTC

Mar-22@
18:00 UTC

Mar-22 @ 18:00 UTC

TEMPO 2208/2218 3SM -SN -RA BR OVC015

Temporary

Temporary Changes expected for less than half the time period

Conditions
Light Snow, Light Rain, Mist
Cloud Levels
  • Overcast at 1,500' AGL

Mar-22@
18:00 UTC

Mar-22 @ 18:00 UTC

Mar-22@
20:00 UTC

Mar-22 @ 20:00 UTC

FM221800 27008KT P6SM BKN030

From

From Standard forecast or significant change

Wind
  • 270° at 8 KTS
Cloud Levels
  • Broken at 3,000' AGL

Mar-22@
18:00 UTC

Mar-22 @ 18:00 UTC

Mar-22@
20:00 UTC

Mar-22 @ 20:00 UTC

TEMPO 2218/2220 4SM -SN -RA BR OVC015 RMK FCST BASED ON AUTO OBS. NXT FCST BY 221400Z

Temporary

Temporary Changes expected for less than half the time period

Conditions
Light Snow, Light Rain, Mist
Cloud Levels
  • Overcast at 1,500' AGL